地図

経路データ

SID SEASON NUMBER BASIN SUBBASIN NAME ISO_TIME NATURE LAT LON WMO_WIND WMO_PRES WMO_AGENCY TRACK_TYPE DIST2LAND LANDFALL IFLAG USA_AGENCY USA_ATCF_ID USA_LAT USA_LON USA_RECORD USA_STATUS USA_WIND USA_PRES USA_SSHS USA_R34_NE USA_R34_SE USA_R34_SW USA_R34_NW USA_R50_NE USA_R50_SE USA_R50_SW USA_R50_NW USA_R64_NE USA_R64_SE USA_R64_SW USA_R64_NW USA_POCI USA_ROCI USA_RMW USA_EYE TOKYO_LAT TOKYO_LON TOKYO_GRADE TOKYO_WIND TOKYO_PRES TOKYO_R50_DIR TOKYO_R50_LONG TOKYO_R50_SHORT TOKYO_R30_DIR TOKYO_R30_LONG TOKYO_R30_SHORT TOKYO_LAND CMA_LAT CMA_LON CMA_CAT CMA_WIND CMA_PRES HKO_LAT HKO_LON HKO_CAT HKO_WIND HKO_PRES NEWDELHI_LAT NEWDELHI_LON NEWDELHI_GRADE NEWDELHI_WIND NEWDELHI_PRES NEWDELHI_CI NEWDELHI_DP NEWDELHI_POCI REUNION_LAT REUNION_LON REUNION_TYPE REUNION_WIND REUNION_PRES REUNION_TNUM REUNION_CI REUNION_RMW REUNION_R34_NE REUNION_R34_SE REUNION_R34_SW REUNION_R34_NW REUNION_R50_NE REUNION_R50_SE REUNION_R50_SW REUNION_R50_NW REUNION_R64_NE REUNION_R64_SE REUNION_R64_SW REUNION_R64_NW BOM_LAT BOM_LON BOM_TYPE BOM_WIND BOM_PRES BOM_TNUM BOM_CI BOM_RMW BOM_R34_NE BOM_R34_SE BOM_R34_SW BOM_R34_NW BOM_R50_NE BOM_R50_SE BOM_R50_SW BOM_R50_NW BOM_R64_NE BOM_R64_SE BOM_R64_SW BOM_R64_NW BOM_ROCI BOM_POCI BOM_EYE BOM_POS_METHOD BOM_PRES_METHOD NADI_LAT NADI_LON NADI_CAT NADI_WIND NADI_PRES WELLINGTON_LAT WELLINGTON_LON WELLINGTON_WIND WELLINGTON_PRES DS824_LAT DS824_LON DS824_STAGE DS824_WIND DS824_PRES TD9636_LAT TD9636_LON TD9636_STAGE TD9636_WIND TD9636_PRES TD9635_LAT TD9635_LON TD9635_WIND TD9635_PRES TD9635_ROCI NEUMANN_LAT NEUMANN_LON NEUMANN_CLASS NEUMANN_WIND NEUMANN_PRES MLC_LAT MLC_LON MLC_CLASS MLC_WIND MLC_PRES USA_GUST BOM_GUST BOM_GUST_PER REUNION_GUST REUNION_GUST_PER USA_SEAHGT USA_SEARAD_NE USA_SEARAD_SE USA_SEARAD_SW USA_SEARAD_NW STORM_SPEED STORM_DIR
1898164N18086 1898 15 NI BB NOT_NAMED 1898-06-13 00:00:00 TS 18.2000 86.0000 main 162 162 _________O____ -1 18.2000 86.0000 TC 34 1 97
1898164N18086 1898 15 NI BB NOT_NAMED 1898-06-13 03:00:00 TS 18.1950 86.0333 main 162 162 _________PO___ -1 18.1925 86.0500 TC 36 18.2000 86.0000 2 1 88
1898164N18086 1898 15 NI BB NOT_NAMED 1898-06-13 06:00:00 TS 18.2031 86.0819 main 171 171 _________OP___ -1 18.2000 86.1000 TC 39 18.2078 86.0547 2 1 71
1898164N18086 1898 15 NI BB NOT_NAMED 1898-06-13 09:00:00 TS 18.2296 86.1318 main 171 168 _________PP___ -1 18.2350 86.1500 TC 42 18.2225 86.1075 2 1 50
1898164N18086 1898 15 NI BB NOT_NAMED 1898-06-13 12:00:00 TS 18.2755 86.1783 main 168 168 _________OP___ -1 18.3000 86.2000 TC 45 18.2509 86.1566 2 2 36
1898164N18086 1898 15 NI BB NOT_NAMED 1898-06-13 15:00:00 TS 18.3500 86.2287 main 158 158 _________PO___ -1 18.4000 86.2575 TC 45 18.3000 86.2000 3 2 30
1898164N18086 1898 15 NI BB NOT_NAMED 1898-06-13 18:00:00 TS 18.4364 86.2681 main 164 154 _________OP___ -1 18.5000 86.3000 TC 45 18.3728 86.2362 3 2 21
1898164N18086 1898 15 NI BB NOT_NAMED 1898-06-13 21:00:00 TS 18.5112 86.2863 main 154 144 _________PP___ -1 18.5650 86.3075 TC 45 18.4575 86.2650 3 1 0
1898164N18086 1898 15 NI BB NOT_NAMED 1898-06-14 00:00:00 TS 18.5692 86.2931 main 144 144 _________OP___ -1 18.6000 86.3000 TC 45 18.5384 86.2862 3 1 0
1898164N18086 1898 15 NI BB NOT_NAMED 1898-06-14 03:00:00 TS 18.6038 86.3000 main 144 144 _________PO___ -1 18.6075 86.3000 TC 45 18.6000 86.3000 3 0 0
1898164N18086 1898 15 NI BB NOT_NAMED 1898-06-14 06:00:00 TS 18.6108 86.3036 main 144 144 _________OP___ -1 18.6000 86.3000 TC 45 18.6216 86.3072 3 0 0
1898164N18086 1898 15 NI BB NOT_NAMED 1898-06-14 09:00:00 TS 18.6112 86.3038 main 144 144 _________PP___ -1 18.6000 86.3000 TC 45 18.6225 86.3075 3 0 0
1898164N18086 1898 15 NI BB NOT_NAMED 1898-06-14 12:00:00 TS 18.6061 86.3020 main 144 144 _________OP___ -1 18.6000 86.3000 TC 45 18.6122 86.3041 3 0 0
1898164N18086 1898 15 NI BB NOT_NAMED 1898-06-14 15:00:00 TS 18.6000 86.3000 main 144 144 _________PO___ -1 18.6000 86.3000 TC 45 18.6000 86.3000 3 0 0
1898164N18086 1898 15 NI BB NOT_NAMED 1898-06-14 18:00:00 TS 18.5634 86.2900 main 144 144 _________OP___ -1 18.6000 86.3000 TC 45 18.5269 86.2799 3 1 205
1898164N18086 1898 15 NI BB NOT_NAMED 1898-06-14 21:00:00 TS 18.4987 86.2703 main 154 154 _________PP___ -1 18.5325 86.2776 TC 45 18.4650 86.2629 3 0 225
1898164N18086 1898 15 NI BB NOT_NAMED 1898-06-15 00:00:00 TS 18.5353 86.2822 main 154 127 _________OP___ -1 18.6000 86.3000 TC 45 18.4706 86.2645 3 3 17
1898164N18086 1898 15 NI BB NOT_NAMED 1898-06-15 03:00:00 TS 18.7913 86.3674 main 127 88 _________PO___ -1 18.9825 86.4348 TC 45 18.6000 86.3000 3 7 16
1898164N18086 1898 15 NI BB NOT_NAMED 1898-06-15 06:00:00 TS 19.2184 86.4863 main 88 39 _________OP___ -1 19.5000 86.6000 TC 45 18.9368 86.3727 3 9 13
1898164N18086 1898 15 NI BB NOT_NAMED 1898-06-15 09:00:00 TS 19.6799 86.5838 main 39 22 _________PP___ -1 19.9649 86.6853 TC 45 19.3950 86.4823 3 10 13
1898164N18086 1898 15 NI BB NOT_NAMED 1898-06-15 12:00:00 TS 20.1528 86.7129 main 11 0 _________OP___ -1 20.4000 86.8000 TC 45 19.9056 86.6259 3 10 19
1898164N18086 1898 15 NI BB NOT_NAMED 1898-06-15 15:00:00 TS 20.5825 86.9175 main 0 0 _________PO___ -1 20.7651 87.0350 TC 41 20.4000 86.8000 3 9 27
1898164N18086 1898 15 NI BB NOT_NAMED 1898-06-15 18:00:00 TS 20.9679 87.1660 main 30 30 _________OP___ -1 21.1000 87.3000 TC 37 20.8359 87.0320 3 9 30
1898164N18086 1898 15 NI BB NOT_NAMED 1898-06-15 21:00:00 TS 21.3689 87.4119 main 22 0 _________PP___ -1 21.5025 87.5374 TC 33 21.2354 87.2864 3 8 30
1898164N18086 1898 15 NI BB NOT_NAMED 1898-06-16 00:00:00 TS 21.6836 87.6113 main 0 0 _________OP___ -1 21.8000 87.7000 TC 30 21.5671 87.5227 3 5 32
1898164N18086 1898 15 NI BB NOT_NAMED 1898-06-16 03:00:00 TS 21.8262 87.7151 main 0 0 _________PO___ -1 21.8525 87.7301 TC 30 21.8000 87.7000 1 2 34
1898164N18086 1898 15 NI BB NOT_NAMED 1898-06-16 06:00:00 TS 21.8502 87.7327 main 0 0 _________OP___ -1 21.8000 87.7000 TC 30 21.9004 87.7653 1 0 0
1898164N18086 1898 15 NI BB NOT_NAMED 1898-06-16 09:00:00 TS 21.8524 87.7341 main 0 0 _________PP___ -1 21.8000 87.7000 TC 30 21.9048 87.7682 1 0 0
1898164N18086 1898 15 NI BB NOT_NAMED 1898-06-16 12:00:00 TS 21.8284 87.7185 main 0 0 _________OP___ -1 21.8000 87.7000 TC 30 21.8568 87.7369 1 1 220
1898164N18086 1898 15 NI BB NOT_NAMED 1898-06-16 15:00:00 TS 21.8000 87.7000 main 0 0 _________PO___ -1 21.8000 87.7000 TC 30 21.8000 87.7000 1 1 220
1898164N18086 1898 15 NI BB NOT_NAMED 1898-06-16 18:00:00 TS 21.7756 87.6839 main 0 0 _________OP___ -1 21.8000 87.7000 TC 30 21.7512 87.6678 1 1 216
1898164N18086 1898 15 NI BB NOT_NAMED 1898-06-16 21:00:00 TS 21.7362 87.6591 main 0 0 _________PP___ -1 21.7625 87.6776 TC 30 21.7098 87.6405 1 0 0
1898164N18086 1898 15 NI BB NOT_NAMED 1898-06-17 00:00:00 TS 21.7568 87.6715 main 0 0 _________OP___ -1 21.8000 87.7000 TC 30 21.7136 87.6430 1 2 29
1898164N18086 1898 15 NI BB NOT_NAMED 1898-06-17 03:00:00 TS 21.8987 87.7563 main 0 0 _________PO___ -1 21.9975 87.8126 TC 30 21.8000 87.7000 1 5 32
1898164N18086 1898 15 NI BB NOT_NAMED 1898-06-17 06:00:00 TS 22.1509 87.9351 main 0 0 _________OP___ -1 22.3000 88.0000 TC 30 22.0019 87.8701 1 7 35
1898164N18086 1898 15 NI BB NOT_NAMED 1898-06-17 09:00:00 TS 22.4616 88.1743 main 0 0 _________PP___ -1 22.6351 88.2573 TC 30 22.2880 88.0912 1 8 33
1898164N18086 1898 15 NI BB NOT_NAMED 1898-06-17 12:00:00 TS 22.8150 88.4084 main 0 0 _________OP___ -1 23.0000 88.5000 TC 30 22.6300 88.3169 1 8 27
1898164N18086 1898 15 NI BB NOT_NAMED 1898-06-17 15:00:00 TS 23.1712 88.5725 main 0 0 _________PO___ -1 23.3424 88.6450 TC 30 23.0000 88.5000 1 8 16
1898164N18086 1898 15 NI BB NOT_NAMED 1898-06-17 18:00:00 TS 23.5510 88.6399 main 0 0 _________OP___ -1 23.7000 88.7000 TC 30 23.4020 88.5799 1 8 4
1898164N18086 1898 15 NI BB NOT_NAMED 1898-06-17 21:00:00 TS 23.9774 88.6380 main 0 0 _________PP___ -1 24.1375 88.6653 TC 30 23.8173 88.6106 1 8 358
1898164N18086 1898 15 NI BB NOT_NAMED 1898-06-18 00:00:00 TS 24.3495 88.6055 main 0 0 _________OP___ -1 24.5000 88.6000 TC 30 24.1990 88.6110 1 6 356
1898164N18086 1898 15 NI BB NOT_NAMED 1898-06-18 03:00:00 TS 24.5762 88.5962 main 0 0 _________PO___ -1 24.6525 88.5924 TC 30 24.5000 88.6000 1 3 358
1898164N18086 1898 15 NI BB NOT_NAMED 1898-06-18 06:00:00 TS 24.6826 88.6016 main 0 0 _________OP___ -1 24.7000 88.6000 TC 30 24.6653 88.6032 1 2 5
1898164N18086 1898 15 NI BB NOT_NAMED 1898-06-18 09:00:00 TS 24.7525 88.6001 main 0 0 _________PP___ -1 24.7575 88.6000 TC 30 24.7475 88.6001 1 1 0
1898164N18086 1898 15 NI BB NOT_NAMED 1898-06-18 12:00:00 TS 24.7905 88.5985 main 0 0 _________OP___ -1 24.8000 88.6000 TC 30 24.7809 88.5969 1 1 0
1898164N18086 1898 15 NI BB NOT_NAMED 1898-06-18 15:00:00 TS 24.8250 88.5963 main 0 0 _________PO___ -1 24.8500 88.5925 TC 30 24.8000 88.6000 1 1 18
1898164N18086 1898 15 NI BB NOT_NAMED 1898-06-18 18:00:00 TS 24.8745 88.6049 main 0 0 _________OP___ -1 24.9000 88.6000 TC 30 24.8490 88.6097 1 1 17
1898164N18086 1898 15 NI BB NOT_NAMED 1898-06-18 21:00:00 TS 24.9175 88.6350 main 0 0 _________PP___ -1 24.9425 88.6425 TC 30 24.8925 88.6276 1 1 37
1898164N18086 1898 15 NI BB NOT_NAMED 1898-06-19 00:00:00 TS 24.9698 88.6783 main 0 0 _________OP___ -1 25.0000 88.7000 TC 30 24.9397 88.6566 1 2 33
1898164N18086 1898 15 NI BB NOT_NAMED 1898-06-19 03:00:00 TS 25.0462 88.7213 main 0 0 _________PO___ -1 25.0925 88.7425 TC 30 25.0000 88.7000 1 2 28
1898164N18086 1898 15 NI BB NOT_NAMED 1898-06-19 06:00:00 TS 25.1448 88.7762 main 0 0 _________OP___ -1 25.2000 88.8000 TC 30 25.0897 88.7525 1 2 33
1898164N18086 1898 15 NI BB NOT_NAMED 1898-06-19 09:00:00 TS 25.2462 88.8562 main 0 0 _________PP___ -1 25.3000 88.8925 TC 30 25.1925 88.8200 1 3 38
1898164N18086 1898 15 NI BB NOT_NAMED 1898-06-19 12:00:00 TS 25.3495 88.9512 main 0 0 _________OP___ -1 25.4000 89.0000 TC 30 25.2990 88.9025 1 3 40
1898164N18086 1898 15 NI BB NOT_NAMED 1898-06-19 15:00:00 TS 25.4537 89.0462 main 0 0 _________PO___ -1 25.5075 89.0925 TC 30 25.4000 89.0000 1 3 43
1898164N18086 1898 15 NI BB NOT_NAMED 1898-06-19 18:00:00 TS 25.5361 89.1496 main 0 0 _________OP___ -1 25.6000 89.2000 TC 30 25.4882 89.1118 1 3 54
1898164N18086 1898 15 NI BB NOT_NAMED 1898-06-19 21:00:00 TS 25.6031 89.2769 main 0 0 _________PP___ -1 25.6600 89.3400 TC 30 25.5651 89.2349 1 3 63
1898164N18086 1898 15 NI BB NOT_NAMED 1898-06-20 00:00:00 TS 25.6563 89.4104 main 0 0 _________OP___ -1 25.7000 89.5000 TC 30 25.6345 89.3655 1 2 64
1898164N18086 1898 15 NI BB NOT_NAMED 1898-06-20 03:00:00 NR 25.7000 89.5000 main 0 __________O___ -1 TC 25.7000 89.5000 1 2 60

IBTrACS Databaseについて

本データベースは、米国NOAAが公開する1842年以降の世界の熱帯低気圧のベストトラックデータアーカイブInternational Best Track Archive for Climate Stewardship (IBTrACS)を、ウェブで閲覧しやすい形式に変換したものです。

最終更新日:2021-10-08